Time;durP1;ratioP1;P1;durP2;ratioP2;P2;SDS_P1;SDS_P2;PMS_P1;PMS_P2;Temp;Humidity;BMP_temperature;BMP_pressure;BME280_temperature;BME280_humidity;BME280_pressure;Samples;Min_cycle;Max_cycle;Signal;HPM_P1;HPM_P2
2022/09/24 04:04:09;;;;;;;6.05;5.45;;;10.80;99.90;;;;;;5771661;22;20362;-67
2022/09/24 04:06:34;;;;;;;10.40;5.75;;;10.90;99.90;;;;;;4976328;28;20606;-67
2022/09/24 04:09:00;;;;;;;6.07;5.33;;;10.90;99.90;;;;;;4975992;28;20324;-67
2022/09/24 04:11:26;;;;;;;6.40;5.43;;;10.90;99.90;;;;;;4974384;28;20668;-67
2022/09/24 04:13:52;;;;;;;7.17;6.47;;;10.90;99.90;;;;;;4975588;28;20196;-67
2022/09/24 04:16:17;;;;;;;4.85;4.40;;;10.90;99.90;;;;;;4975567;28;20189;-67
2022/09/24 04:18:43;;;;;;;6.80;6.27;;;10.90;99.90;;;;;;4975645;28;20176;-68
2022/09/24 04:21:09;;;;;;;6.80;6.10;;;10.90;99.90;;;;;;4976274;28;20188;-68
2022/09/24 04:23:35;;;;;;;5.90;5.40;;;11.00;99.90;;;;;;4975456;28;20665;-68
2022/09/24 04:26:01;;;;;;;6.50;5.40;;;11.00;99.90;;;;;;4974181;28;20795;-71
2022/09/24 04:28:27;;;;;;;5.90;5.30;;;11.00;99.90;;;;;;4974930;28;20220;-69
2022/09/24 04:30:53;;;;;;;5.97;5.40;;;11.10;99.90;;;;;;4975406;28;20486;-69
2022/09/24 04:33:18;;;;;;;6.73;6.03;;;11.10;99.90;;;;;;4975077;28;20172;-68
2022/09/24 04:35:45;;;;;;;6.27;5.67;;;11.10;99.90;;;;;;4974900;28;20642;-68
2022/09/24 04:38:10;;;;;;;5.70;5.30;;;11.20;99.90;;;;;;4975539;28;20184;-69
2022/09/24 04:40:36;;;;;;;6.10;5.50;;;11.20;99.90;;;;;;4957892;28;20185;-68
2022/09/24 04:43:04;;;;;;;6.90;6.37;;;11.10;99.90;;;;;;4973318;28;20258;-67
2022/09/24 04:45:31;;;;;;;7.90;6.32;;;11.20;99.90;;;;;;4958093;28;20659;-68
2022/09/24 04:47:57;;;;;;;5.97;5.47;;;11.10;99.90;;;;;;4975665;28;20201;-67
2022/09/24 04:50:33;;;;;;;8.20;6.63;;;11.10;99.90;;;;;;4975474;28;20254;-68
2022/09/24 04:52:59;;;;;;;5.45;4.95;;;11.20;99.90;;;;;;4975103;28;20176;-67
2022/09/24 04:55:26;;;;;;;6.20;5.60;;;11.20;99.90;;;;;;4975435;28;20299;-69
2022/09/24 04:57:55;;;;;;;6.82;6.13;;;11.20;99.90;;;;;;4975303;28;20425;-67
2022/09/24 05:00:21;;;;;;;6.65;6.05;;;11.20;99.90;;;;;;4958304;28;20255;-69
2022/09/24 05:02:54;;;;;;;8.30;7.30;;;11.20;99.90;;;;;;4974306;28;20184;-67
2022/09/24 05:05:19;;;;;;;6.75;5.50;;;11.30;99.90;;;;;;4975111;28;20642;-68
2022/09/24 05:07:45;;;;;;;7.63;6.93;;;11.30;99.90;;;;;;4974978;28;20278;-69
2022/09/24 05:10:10;;;;;;;5.73;5.17;;;11.30;99.90;;;;;;4955771;29;20174;-66
2022/09/24 05:12:38;;;;;;;6.87;5.57;;;11.20;99.90;;;;;;4938396;29;20173;-69
2022/09/24 05:15:04;;;;;;;7.18;6.32;;;11.30;99.90;;;;;;4955702;29;20185;-68
2022/09/24 05:17:30;;;;;;;7.63;6.13;;;11.30;99.90;;;;;;4955901;29;20186;-68
2022/09/24 05:19:56;;;;;;;5.80;5.30;;;11.30;99.90;;;;;;4955998;29;20257;-68
2022/09/24 05:22:24;;;;;;;5.20;4.68;;;11.30;99.90;;;;;;4961121;28;20250;-68
2022/09/24 05:24:49;;;;;;;5.97;5.18;;;11.30;99.90;;;;;;4974523;28;20562;-68
2022/09/24 05:27:15;;;;;;;5.80;5.20;;;11.20;99.90;;;;;;4974902;28;20173;-68
2022/09/24 05:29:42;;;;;;;4.80;4.50;;;11.30;99.90;;;;;;4974235;28;20622;-68
2022/09/24 05:32:17;;;;;;;5.75;5.05;;;11.30;99.90;;;;;;4957594;28;20267;-69
2022/09/24 05:34:44;;;;;;;6.60;5.95;;;11.30;99.90;;;;;;4974120;28;20210;-69
2022/09/24 05:37:11;;;;;;;10.35;6.22;;;11.30;99.90;;;;;;4968436;28;20261;-68
2022/09/24 05:39:37;;;;;;;6.17;5.67;;;11.40;99.90;;;;;;4968774;28;20181;-68
2022/09/24 05:42:03;;;;;;;5.82;5.32;;;11.40;99.90;;;;;;4974769;28;20434;-68
2022/09/24 05:44:30;;;;;;;6.05;5.55;;;11.40;99.90;;;;;;4973623;28;20250;-69
2022/09/24 05:46:56;;;;;;;6.55;5.95;;;11.40;99.90;;;;;;4974972;28;20245;-68
2022/09/24 05:49:23;;;;;;;7.55;6.82;;;11.50;99.90;;;;;;4966036;28;20226;-70
2022/09/24 05:51:50;;;;;;;9.30;5.45;;;11.40;99.90;;;;;;4974278;28;20181;-68
2022/09/24 05:54:16;;;;;;;6.20;5.60;;;11.50;99.90;;;;;;4973707;28;20287;-69
2022/09/24 05:56:42;;;;;;;6.47;5.38;;;11.50;99.90;;;;;;4974273;28;20263;-70
2022/09/24 05:59:09;;;;;;;6.55;5.63;;;11.50;99.90;;;;;;4970975;28;20548;-68
2022/09/24 06:01:34;;;;;;;6.13;5.53;;;11.50;99.90;;;;;;4959114;28;20227;-69
2022/09/24 06:04:00;;;;;;;7.87;6.40;;;11.60;99.90;;;;;;4974004;28;20192;-71
2022/09/24 06:06:26;;;;;;;7.40;6.03;;;11.70;99.90;;;;;;4973944;28;20185;-70
2022/09/24 06:08:53;;;;;;;7.00;6.30;;;11.70;99.90;;;;;;4963350;28;20468;-69
2022/09/24 06:11:20;;;;;;;6.13;5.55;;;11.80;99.90;;;;;;4961970;28;20504;-68
2022/09/24 06:13:46;;;;;;;6.60;6.00;;;11.90;99.90;;;;;;4972141;28;20196;-73
2022/09/24 06:16:12;;;;;;;8.10;7.30;;;12.00;99.90;;;;;;4968874;28;20225;-69
2022/09/24 06:18:41;;;;;;;6.70;6.00;;;12.00;99.90;;;;;;4971961;28;20178;-70
2022/09/24 06:21:10;;;;;;;8.10;6.70;;;12.10;99.90;;;;;;4973365;28;20193;-72
2022/09/24 06:23:37;;;;;;;5.63;5.23;;;12.20;99.90;;;;;;4972075;28;20525;-70
2022/09/24 06:26:06;;;;;;;11.80;5.30;;;12.30;99.90;;;;;;4962496;28;20426;-64
2022/09/24 06:28:32;;;;;;;7.23;5.90;;;12.40;99.90;;;;;;4966720;28;20468;-65
2022/09/24 06:30:59;;;;;;;7.75;6.68;;;12.50;99.90;;;;;;4973608;28;20422;-65
2022/09/24 06:33:25;;;;;;;7.00;5.70;;;12.70;99.90;;;;;;4973493;28;20217;-65
2022/09/24 06:35:51;;;;;;;5.30;4.80;;;12.80;99.90;;;;;;4973851;28;20418;-65
2022/09/24 06:38:18;;;;;;;6.37;5.67;;;12.90;99.90;;;;;;4974235;28;20962;-65
2022/09/24 06:40:45;;;;;;;5.97;5.43;;;13.00;99.90;;;;;;4975061;28;20228;-65
2022/09/24 06:43:12;;;;;;;6.77;6.17;;;13.00;99.90;;;;;;4970014;28;20436;-65
2022/09/24 06:45:40;;;;;;;6.30;5.73;;;13.10;99.90;;;;;;4976786;28;20421;-66
2022/09/24 06:48:06;;;;;;;7.43;5.70;;;13.10;99.90;;;;;;4973501;28;20872;-65
2022/09/24 06:50:33;;;;;;;7.83;7.03;;;13.20;99.90;;;;;;4972420;28;20451;-65
2022/09/24 06:52:59;;;;;;;5.27;4.63;;;13.20;99.90;;;;;;4965659;28;20186;-66
2022/09/24 06:55:25;;;;;;;6.00;5.40;;;13.40;99.90;;;;;;4976547;28;20478;-66
2022/09/24 06:58:02;;;;;;;5.97;5.37;;;13.40;99.90;;;;;;4972053;28;20731;-68
2022/09/24 07:00:27;;;;;;;7.37;6.60;;;13.40;99.90;;;;;;4973238;28;20473;-66
2022/09/24 07:02:53;;;;;;;7.00;6.40;;;13.50;99.90;;;;;;4977232;28;20413;-66
2022/09/24 07:05:18;;;;;;;7.37;6.07;;;13.50;99.90;;;;;;4977307;28;20272;-66
2022/09/24 07:07:44;;;;;;;7.40;6.80;;;13.50;99.90;;;;;;4976591;28;20211;-66
2022/09/24 07:10:09;;;;;;;8.20;6.90;;;13.50;99.90;;;;;;4976649;28;20684;-66
2022/09/24 07:12:35;;;;;;;5.80;5.27;;;13.60;99.90;;;;;;4976107;28;20198;-65
2022/09/24 07:15:02;;;;;;;8.80;6.90;;;13.60;99.90;;;;;;4976828;28;20194;-66
2022/09/24 07:17:28;;;;;;;8.50;6.63;;;13.70;99.90;;;;;;4976311;28;20419;-66
2022/09/24 07:19:54;;;;;;;8.40;7.23;;;13.70;99.90;;;;;;4976719;28;20518;-65
2022/09/24 07:22:21;;;;;;;5.60;5.10;;;13.80;99.90;;;;;;4976823;28;20438;-64
2022/09/24 07:24:46;;;;;;;6.90;6.20;;;13.80;99.90;;;;;;4976976;28;20442;-65
2022/09/24 07:27:13;;;;;;;7.43;5.90;;;13.80;99.90;;;;;;4976718;28;20423;-65
2022/09/24 07:29:39;;;;;;;6.67;6.07;;;13.90;99.90;;;;;;4977188;28;20176;-65
2022/09/24 07:32:05;;;;;;;6.20;5.70;;;13.90;99.90;;;;;;4977464;28;20414;-65
2022/09/24 07:34:31;;;;;;;7.57;6.80;;;13.90;99.90;;;;;;4976628;28;20486;-66
2022/09/24 07:36:57;;;;;;;6.57;5.90;;;14.00;99.90;;;;;;4976425;28;20433;-65
2022/09/24 07:39:23;;;;;;;11.13;6.13;;;14.00;99.90;;;;;;4976916;28;20411;-66
2022/09/24 07:41:51;;;;;;;12.17;6.57;;;14.00;99.90;;;;;;4977016;28;20390;-66
2022/09/24 07:44:19;;;;;;;6.23;5.73;;;14.10;99.90;;;;;;4976316;28;20481;-67
2022/09/24 07:46:47;;;;;;;7.70;7.00;;;14.10;99.90;;;;;;4976399;28;20845;-66
2022/09/24 07:49:12;;;;;;;6.93;6.27;;;14.20;99.90;;;;;;4976693;28;20458;-64
2022/09/24 07:51:38;;;;;;;7.77;6.97;;;14.30;99.90;;;;;;4976490;28;20990;-65
2022/09/24 07:54:05;;;;;;;7.50;5.80;;;14.30;99.90;;;;;;4975476;28;20199;-65
2022/09/24 07:56:34;;;;;;;6.83;6.13;;;14.30;99.90;;;;;;4976426;28;20208;-66
2022/09/24 07:58:59;;;;;;;7.97;7.20;;;14.50;99.90;;;;;;4976224;28;20411;-65
2022/09/24 08:01:26;;;;;;;8.77;6.90;;;14.60;99.90;;;;;;4976246;28;20434;-65
2022/09/24 08:03:52;;;;;;;7.30;6.60;;;14.60;99.90;;;;;;4975951;28;20940;-66
2022/09/24 08:06:20;;;;;;;6.43;5.83;;;14.70;99.90;;;;;;4976444;28;20474;-65
2022/09/24 08:08:49;;;;;;;6.97;6.27;;;14.70;99.90;;;;;;4976065;28;20463;-65
2022/09/24 08:11:16;;;;;;;6.03;5.43;;;14.80;99.90;;;;;;4976202;28;20398;-66
2022/09/24 08:13:42;;;;;;;7.57;6.63;;;14.90;99.90;;;;;;4958585;28;20848;-65
2022/09/24 08:16:07;;;;;;;6.77;5.57;;;15.00;99.90;;;;;;4976242;28;20486;-65
2022/09/24 08:18:33;;;;;;;6.43;5.80;;;15.10;99.90;;;;;;4975530;28;20176;-64
2022/09/24 08:21:06;;;;;;;8.63;6.87;;;15.30;99.90;;;;;;4976061;28;20184;-65
2022/09/24 08:23:32;;;;;;;7.47;6.67;;;15.30;99.90;;;;;;4975563;28;20220;-64
2022/09/24 08:25:59;;;;;;;8.47;6.97;;;15.40;99.90;;;;;;4975617;28;20419;-66
2022/09/24 08:28:24;;;;;;;6.70;6.10;;;15.40;99.90;;;;;;4975734;28;20466;-66
2022/09/24 08:30:50;;;;;;;6.60;6.00;;;15.50;99.90;;;;;;4975977;28;20516;-66
2022/09/24 08:33:16;;;;;;;7.27;6.67;;;15.50;99.90;;;;;;4974924;28;20304;-65
2022/09/24 08:35:41;;;;;;;7.57;6.10;;;15.50;99.90;;;;;;4975821;28;20168;-65
2022/09/24 08:38:08;;;;;;;7.03;6.43;;;15.60;99.90;;;;;;4975874;28;20225;-65
2022/09/24 08:41:11;;;;;;;8.03;6.93;;;15.60;99.90;;;;;;4975488;28;20209;-66
2022/09/24 08:43:47;;;;;;;6.03;5.53;;;15.80;99.90;;;;;;4953188;28;21021;-67
2022/09/24 08:49:34;;;;;;;6.60;5.90;;;16.30;99.90;;;;;;4955648;29;20822;-66
2022/09/24 08:52:21;;;;;;;6.37;5.77;;;16.80;99.90;;;;;;4956387;29;20803;-68
2022/09/24 08:54:49;;;;;;;7.00;6.03;;;17.20;99.90;;;;;;4951845;28;20441;-66
2022/09/24 08:57:19;;;;;;;6.23;5.63;;;17.60;99.90;;;;;;4974980;28;20502;-66
2022/09/24 08:59:50;;;;;;;7.23;6.53;;;18.10;99.90;;;;;;4975352;28;20404;-66
2022/09/24 09:02:34;;;;;;;6.90;5.60;;;18.70;99.90;;;;;;4974782;28;20741;-66
2022/09/24 09:05:13;;;;;;;8.03;6.00;;;19.50;99.90;;;;;;4974260;28;20443;-65
2022/09/24 09:07:58;;;;;;;5.83;5.07;;;20.10;99.90;;;;;;4957849;28;20433;-65
2022/09/24 09:10:34;;;;;;;4.90;4.13;;;20.90;99.90;;;;;;4975390;28;20935;-66
2022/09/24 09:13:25;;;;;;;6.00;5.60;;;21.60;99.90;;;;;;4974423;28;20823;-66
2022/09/24 09:16:05;;;;;;;6.60;3.97;;;22.50;98.50;;;;;;4975314;28;20450;-65
2022/09/24 09:18:40;;;;;;;5.50;5.00;;;23.00;96.10;;;;;;4974951;28;20457;-67
2022/09/24 09:21:32;;;;;;;4.47;4.10;;;23.50;95.00;;;;;;4975323;28;20378;-67
2022/09/24 09:24:00;;;;;;;4.13;3.73;;;23.60;94.40;;;;;;4955297;28;20802;-66
2022/09/24 09:26:26;;;;;;;4.80;4.40;;;23.70;92.90;;;;;;4955690;29;20437;-65
2022/09/24 09:28:58;;;;;;;4.50;4.20;;;23.60;93.70;;;;;;4955249;29;20580;-65
2022/09/24 09:32:02;;;;;;;4.70;4.40;;;24.00;93.90;;;;;;4960056;28;20219;-65
2022/09/24 09:34:46;;;;;;;4.33;3.90;;;24.20;92.90;;;;;;4971543;28;20457;-66
2022/09/24 09:37:37;;;;;;;6.00;4.20;;;24.60;92.70;;;;;;4956858;28;20917;-66
2022/09/24 09:40:21;;;;;;;4.13;3.70;;;24.80;91.70;;;;;;4974750;28;20393;-66
2022/09/24 09:42:47;;;;;;;4.03;3.63;;;24.70;91.60;;;;;;4957206;28;20395;-66
2022/09/24 09:45:24;;;;;;;4.23;3.83;;;24.50;91.90;;;;;;4974033;28;20761;-65
2022/09/24 09:47:54;;;;;;;4.40;3.80;;;24.20;92.00;;;;;;4974437;28;20473;-65
2022/09/24 09:50:43;;;;;;;4.20;3.90;;;23.80;92.50;;;;;;4974740;28;20802;-65
2022/09/24 09:53:23;;;;;;;3.77;3.47;;;23.50;92.90;;;;;;4974072;28;20376;-66
2022/09/24 09:55:59;;;;;;;4.33;3.93;;;23.00;93.60;;;;;;4974586;28;20406;-65
2022/09/24 09:58:27;;;;;;;4.10;3.70;;;22.60;93.90;;;;;;4974811;28;20809;-65
2022/09/24 10:01:03;;;;;;;5.30;3.40;;;22.20;94.60;;;;;;4972740;28;20923;-66
2022/09/24 10:03:43;;;;;;;3.67;3.37;;;21.80;95.00;;;;;;4974162;28;20485;-66
2022/09/24 10:06:21;;;;;;;6.00;4.43;;;21.70;95.90;;;;;;4974241;28;20925;-66
2022/09/24 10:08:47;;;;;;;3.93;3.63;;;21.40;96.40;;;;;;4974249;28;20463;-67
2022/09/24 10:11:15;;;;;;;3.93;3.53;;;21.20;96.50;;;;;;4974384;28;20958;-66
2022/09/24 10:13:40;;;;;;;5.07;4.00;;;21.00;97.00;;;;;;4973986;28;20185;-66
2022/09/24 10:16:09;;;;;;;3.63;3.43;;;20.90;97.40;;;;;;4975588;28;20924;-66
2022/09/24 10:18:49;;;;;;;3.40;3.10;;;20.70;98.00;;;;;;4977574;28;20172;-66
2022/09/24 10:21:34;;;;;;;3.10;2.90;;;20.50;98.10;;;;;;4978619;28;20441;-67
2022/09/24 10:24:10;;;;;;;2.13;2.03;;;20.40;98.80;;;;;;4978106;28;20402;-67
2022/09/24 10:26:41;;;;;;;2.30;2.10;;;20.20;98.90;;;;;;4978533;28;20399;-66
2022/09/24 10:32:06;;;;;;;2.53;2.30;;;20.00;99.50;;;;;;4976748;28;20427;-64
2022/09/24 10:34:32;;;;;;;5.90;4.37;;;19.80;99.90;;;;;;4977867;28;20437;-64
2022/09/24 10:37:15;;;;;;;2.60;2.40;;;19.80;99.90;;;;;;4977692;28;20834;-65
2022/09/24 10:39:41;;;;;;;2.50;2.30;;;19.80;99.90;;;;;;4960731;28;20426;-65
2022/09/24 10:42:23;;;;;;;2.20;1.90;;;19.90;99.90;;;;;;4977612;28;20925;-64
2022/09/24 10:44:49;;;;;;;2.57;2.33;;;19.90;99.90;;;;;;4977364;28;20539;-65
2022/09/24 10:47:27;;;;;;;2.30;2.20;;;19.90;99.90;;;;;;4977931;28;20381;-66
2022/09/24 10:50:31;;;;;;;2.77;2.30;;;19.90;99.90;;;;;;4977572;28;20428;-66
2022/09/24 10:53:05;;;;;;;3.73;2.30;;;20.00;99.90;;;;;;4973935;28;20398;-66
2022/09/24 10:55:46;;;;;;;2.43;2.23;;;19.90;99.90;;;;;;4960235;28;20430;-66
2022/09/24 10:58:30;;;;;;;2.87;2.67;;;19.80;99.90;;;;;;4977524;28;20416;-66
2022/09/24 11:01:06;;;;;;;2.27;2.17;;;19.80;99.90;;;;;;4977488;28;20404;-65
2022/09/24 11:03:41;;;;;;;3.33;2.23;;;19.80;99.90;;;;;;4977472;28;20410;-66
2022/09/24 11:06:13;;;;;;;3.83;2.40;;;19.90;99.90;;;;;;4977254;28;20422;-66
2022/09/24 11:08:53;;;;;;;4.53;2.50;;;19.90;99.90;;;;;;4977400;28;20420;-66
2022/09/24 11:12:14;;;;;;;2.10;2.00;;;20.00;99.90;;;;;;4977897;28;20403;-65
2022/09/24 11:15:10;;;;;;;4.07;2.30;;;20.00;99.90;;;;;;4889282;29;20981;-66
2022/09/24 11:18:13;;;;;;;2.50;2.30;;;20.00;99.90;;;;;;4976849;28;20427;-66
2022/09/24 11:20:48;;;;;;;2.70;2.50;;;20.00;99.90;;;;;;4917964;29;20414;-66
2022/09/24 11:23:40;;;;;;;2.10;1.97;;;19.80;99.90;;;;;;4968277;28;20401;-66
2022/09/24 11:26:14;;;;;;;2.53;2.33;;;19.70;99.90;;;;;;4976901;28;20410;-66
2022/09/24 11:28:54;;;;;;;2.70;2.50;;;19.70;99.90;;;;;;4958664;28;20781;-66
2022/09/24 11:31:41;;;;;;;2.20;2.10;;;19.70;99.90;;;;;;4963827;28;20411;-66
2022/09/24 11:34:23;;;;;;;2.77;2.57;;;19.70;99.90;;;;;;4976725;28;20423;-64
2022/09/24 11:37:18;;;;;;;3.30;2.90;;;19.70;99.90;;;;;;4959592;28;20419;-66
2022/09/24 11:40:17;;;;;;;2.87;2.67;;;19.80;99.90;;;;;;4976956;28;20475;-67
2022/09/24 11:43:22;;;;;;;2.10;2.00;;;19.80;99.90;;;;;;4976663;28;20411;-66
2022/09/24 11:45:58;;;;;;;2.47;2.20;;;19.80;99.90;;;;;;4976494;28;20412;-66
2022/09/24 11:48:30;;;;;;;2.43;2.30;;;19.80;99.90;;;;;;4977084;28;20505;-66
2022/09/24 11:51:16;;;;;;;2.30;2.13;;;19.70;99.90;;;;;;4976405;28;20426;-66
2022/09/24 11:53:59;;;;;;;2.87;2.67;;;19.40;99.90;;;;;;4965753;28;20440;-65
2022/09/24 11:56:31;;;;;;;2.00;1.90;;;19.10;99.90;;;;;;4940497;29;20424;-67
2022/09/24 11:59:12;;;;;;;2.50;2.30;;;18.90;99.90;;;;;;4962424;28;20440;-66
2022/09/24 12:01:49;;;;;;;2.57;2.37;;;18.60;99.90;;;;;;4976302;28;20463;-65
2022/09/24 12:04:49;;;;;;;2.53;2.33;;;18.30;99.90;;;;;;4959723;28;20824;-65
2022/09/24 12:07:26;;;;;;;1.53;1.43;;;18.10;99.90;;;;;;4976370;28;20921;-65
2022/09/24 12:10:02;;;;;;;2.57;1.90;;;17.80;99.90;;;;;;4976163;28;20416;-66
2022/09/24 12:12:35;;;;;;;3.00;2.00;;;17.70;99.90;;;;;;4974898;28;20400;-66
2022/09/24 12:15:21;;;;;;;1.90;1.77;;;17.50;99.90;;;;;;4975804;28;20462;-65
2022/09/24 12:17:52;;;;;;;2.53;1.97;;;17.40;99.90;;;;;;4976045;28;20945;-66
2022/09/24 12:20:25;;;;;;;1.80;1.70;;;17.20;99.90;;;;;;4976161;28;20402;-66
2022/09/24 12:22:58;;;;;;;1.67;1.57;;;17.20;99.90;;;;;;4975450;28;20465;-65
2022/09/24 12:25:31;;;;;;;2.07;1.97;;;17.10;99.90;;;;;;4976289;28;20435;-66
2022/09/24 12:27:58;;;;;;;2.07;1.90;;;17.10;99.90;;;;;;4975996;28;20772;-66
2022/09/24 12:33:38;;;;;;;2.73;2.53;;;17.20;99.90;;;;;;4956562;28;20503;-65
2022/09/24 12:36:16;;;;;;;2.40;1.97;;;17.20;99.90;;;;;;4956618;29;20410;-66
2022/09/24 12:38:54;;;;;;;3.67;3.30;;;17.10;99.90;;;;;;4956595;28;20443;-65
2022/09/24 12:41:32;;;;;;;2.23;2.10;;;17.10;99.90;;;;;;4972139;28;20777;-66
2022/09/24 12:44:00;;;;;;;3.80;2.90;;;17.10;99.90;;;;;;4975053;28;20444;-66
2022/09/24 12:46:32;;;;;;;4.70;3.40;;;17.00;99.90;;;;;;4976092;28;20407;-67
2022/09/24 12:48:58;;;;;;;3.53;3.23;;;16.90;99.90;;;;;;4975393;28;20546;-66
2022/09/24 12:51:33;;;;;;;3.23;2.93;;;16.90;99.90;;;;;;4975547;28;20524;-65
2022/09/24 12:54:14;;;;;;;2.83;2.63;;;16.90;99.90;;;;;;4975420;28;20438;-65
2022/09/24 12:56:39;;;;;;;3.00;2.70;;;16.80;99.90;;;;;;4956480;29;20424;-63
2022/09/24 12:59:22;;;;;;;3.27;2.97;;;16.90;99.90;;;;;;4956042;29;20423;-65
2022/09/24 13:01:48;;;;;;;2.93;2.63;;;16.90;99.90;;;;;;4974699;28;20205;-65
2022/09/24 13:04:13;;;;;;;3.20;3.00;;;16.90;99.90;;;;;;4974317;28;20469;-65
2022/09/24 13:06:39;;;;;;;3.10;2.80;;;16.90;99.90;;;;;;4981281;28;20198;-65
2022/09/24 13:09:33;;;;;;;3.03;2.83;;;16.90;99.90;;;;;;4977544;28;20217;-65
2022/09/24 13:12:03;;;;;;;2.60;2.40;;;16.80;99.90;;;;;;4976096;28;20425;-65
2022/09/24 13:14:32;;;;;;;3.57;3.27;;;16.80;99.90;;;;;;4984045;28;20426;-66
2022/09/24 13:16:57;;;;;;;3.27;2.90;;;16.80;99.90;;;;;;4974544;28;20433;-66
2022/09/24 13:19:37;;;;;;;3.03;2.70;;;16.80;99.90;;;;;;4958073;28;20402;-65
2022/09/24 13:22:04;;;;;;;3.37;3.07;;;16.90;99.90;;;;;;4974942;28;20534;-65
2022/09/24 13:24:36;;;;;;;5.83;3.80;;;16.90;99.90;;;;;;4973657;28;20446;-65
2022/09/24 13:27:27;;;;;;;4.90;4.40;;;17.00;99.90;;;;;;4975080;28;20488;-66
2022/09/24 13:30:08;;;;;;;5.03;4.00;;;17.00;99.90;;;;;;4975053;28;20764;-65
2022/09/24 13:32:42;;;;;;;6.77;5.83;;;17.10;99.90;;;;;;4974744;28;20520;-66
2022/09/24 13:35:21;;;;;;;5.50;4.83;;;17.20;99.90;;;;;;4974068;28;20498;-66
2022/09/24 13:37:53;;;;;;;3.47;3.17;;;17.20;99.90;;;;;;4973556;28;20492;-65
2022/09/24 13:40:24;;;;;;;3.83;3.47;;;17.20;99.90;;;;;;4971913;28;20411;-65
2022/09/24 13:43:01;;;;;;;3.33;3.13;;;17.20;99.90;;;;;;4973644;28;20428;-66
2022/09/24 13:45:27;;;;;;;3.73;3.30;;;17.10;99.90;;;;;;4955365;28;20830;-66
2022/09/24 13:47:52;;;;;;;3.30;3.00;;;17.10;99.90;;;;;;4973247;28;20485;-64
2022/09/24 13:50:26;;;;;;;2.87;2.67;;;17.00;99.90;;;;;;4973875;28;20462;-63
2022/09/24 13:53:17;;;;;;;3.20;3.00;;;17.00;99.90;;;;;;4973325;28;20174;-64
2022/09/24 13:55:58;;;;;;;3.90;3.50;;;17.00;99.90;;;;;;4955363;29;20381;-64
2022/09/24 13:58:28;;;;;;;5.00;3.77;;;17.00;99.90;;;;;;4955317;29;20375;-64
2022/09/24 14:00:55;;;;;;;3.13;2.83;;;17.00;99.90;;;;;;4955350;29;20455;-65
2022/09/24 14:03:25;;;;;;;3.70;3.07;;;17.10;99.90;;;;;;4956357;28;20394;-67
2022/09/24 14:05:51;;;;;;;3.53;3.23;;;17.10;99.90;;;;;;4973269;28;20811;-65
2022/09/24 14:08:21;;;;;;;3.60;3.30;;;17.10;99.90;;;;;;4973431;28;20941;-66
2022/09/24 14:10:47;;;;;;;3.33;3.03;;;17.10;99.90;;;;;;4974824;28;20406;-66
2022/09/24 14:13:23;;;;;;;3.53;3.20;;;17.10;99.90;;;;;;4974065;28;20408;-66
2022/09/24 14:16:05;;;;;;;3.10;2.90;;;17.10;99.90;;;;;;4974659;28;20402;-66
2022/09/24 14:18:31;;;;;;;4.30;3.90;;;17.10;99.90;;;;;;4957847;28;20445;-66
2022/09/24 14:21:06;;;;;;;4.97;4.27;;;17.10;99.90;;;;;;4974037;28;20828;-65
2022/09/24 14:24:15;;;;;;;4.83;3.10;;;17.00;99.90;;;;;;4974009;28;20237;-65
2022/09/24 14:26:51;;;;;;;4.00;3.60;;;17.00;99.90;;;;;;4963491;28;20465;-65
2022/09/24 14:29:22;;;;;;;2.73;2.53;;;17.00;99.90;;;;;;4973540;28;20455;-66
2022/09/24 14:31:52;;;;;;;8.57;3.00;;;17.00;99.90;;;;;;4973180;28;20422;-65
2022/09/24 14:34:32;;;;;;;3.80;3.40;;;17.10;99.90;;;;;;4956157;28;20536;-65
2022/09/24 14:37:05;;;;;;;4.43;3.37;;;17.10;99.90;;;;;;4973392;28;20439;-66
2022/09/24 14:39:37;;;;;;;3.10;2.80;;;17.10;99.90;;;;;;4974176;28;20801;-66
2022/09/24 14:42:12;;;;;;;3.60;3.30;;;17.10;99.90;;;;;;4974121;28;20420;-65
2022/09/24 14:44:43;;;;;;;5.00;2.97;;;17.10;99.90;;;;;;4973462;28;20429;-65
2022/09/24 14:47:26;;;;;;;3.20;2.90;;;17.00;99.90;;;;;;4973767;28;20428;-66
2022/09/24 14:49:53;;;;;;;3.43;2.93;;;17.00;99.90;;;;;;4956191;28;20812;-66
2022/09/24 14:52:31;;;;;;;3.37;3.00;;;17.00;99.90;;;;;;4973770;28;20445;-65
2022/09/24 14:55:18;;;;;;;2.90;2.60;;;17.00;99.90;;;;;;4973561;28;20424;-65
2022/09/24 14:57:46;;;;;;;3.43;3.13;;;16.90;99.90;;;;;;4973434;28;20446;-65
2022/09/24 15:00:28;;;;;;;3.27;2.40;;;17.00;99.90;;;;;;4972883;28;20416;-65
2022/09/24 15:03:01;;;;;;;2.60;2.40;;;17.00;99.90;;;;;;4975803;28;20426;-65
2022/09/24 15:05:29;;;;;;;3.23;3.03;;;16.90;99.90;;;;;;4976763;28;20459;-65
2022/09/24 15:08:21;;;;;;;4.53;3.73;;;16.90;99.90;;;;;;4977409;28;20459;-65
2022/09/24 15:10:59;;;;;;;5.50;4.80;;;16.80;99.90;;;;;;4977598;28;20489;-65
2022/09/24 15:13:31;;;;;;;5.60;4.07;;;16.80;99.90;;;;;;4976332;28;20421;-65
2022/09/24 15:16:18;;;;;;;8.27;7.47;;;16.80;99.90;;;;;;4977508;28;20409;-65
2022/09/24 15:18:43;;;;;;;4.70;4.20;;;16.80;99.90;;;;;;4977258;28;20410;-64
2022/09/24 15:21:11;;;;;;;4.03;3.63;;;16.80;99.90;;;;;;4976860;28;20929;-65
2022/09/24 15:23:37;;;;;;;7.40;4.50;;;16.90;99.90;;;;;;4976185;28;20501;-65
2022/09/24 15:26:03;;;;;;;4.87;4.27;;;16.90;99.90;;;;;;4977085;28;20407;-65
2022/09/24 15:28:29;;;;;;;3.57;3.27;;;17.00;99.90;;;;;;4976861;28;20917;-64
2022/09/24 15:30:56;;;;;;;7.03;5.17;;;17.00;99.90;;;;;;4977017;28;20170;-66
2022/09/24 15:33:22;;;;;;;9.60;7.90;;;17.00;99.90;;;;;;4976242;28;20758;-65
2022/09/24 15:35:47;;;;;;;7.10;6.10;;;17.00;99.90;;;;;;4976699;28;20396;-65
2022/09/24 15:38:18;;;;;;;4.63;4.13;;;17.00;99.90;;;;;;4960223;28;20175;-65
2022/09/24 15:40:43;;;;;;;4.13;3.83;;;17.10;99.90;;;;;;4977228;28;20193;-65
2022/09/24 15:43:21;;;;;;;6.07;5.27;;;17.10;99.90;;;;;;4975865;28;20420;-65
2022/09/24 15:45:47;;;;;;;6.80;5.80;;;17.10;99.90;;;;;;4975841;28;20413;-65
2022/09/24 15:48:13;;;;;;;4.83;4.10;;;17.10;99.90;;;;;;4976701;28;20449;-65
2022/09/24 15:50:39;;;;;;;3.47;3.17;;;17.10;99.90;;;;;;4976445;28;20422;-65
2022/09/24 15:53:06;;;;;;;4.23;3.83;;;17.10;99.90;;;;;;4976394;28;20202;-65
2022/09/24 15:55:35;;;;;;;4.00;3.60;;;17.00;99.90;;;;;;4976423;28;20422;-65
2022/09/24 15:58:01;;;;;;;3.70;3.40;;;17.00;99.90;;;;;;4976575;28;20420;-66
2022/09/24 16:00:27;;;;;;;3.10;2.87;;;16.90;99.90;;;;;;4976210;28;20507;-65
2022/09/24 16:02:55;;;;;;;7.77;5.00;;;16.90;99.90;;;;;;4975510;28;20917;-65
2022/09/24 16:05:22;;;;;;;5.30;4.80;;;16.90;99.90;;;;;;4976012;28;20505;-66
2022/09/24 16:07:48;;;;;;;5.40;4.67;;;16.90;99.90;;;;;;4975781;28;20451;-65
2022/09/24 16:10:14;;;;;;;3.53;3.33;;;16.90;99.90;;;;;;4976224;28;20415;-64
2022/09/24 16:12:40;;;;;;;4.70;3.80;;;16.90;99.90;;;;;;4976132;28;20423;-65
2022/09/24 16:15:07;;;;;;;3.97;3.63;;;16.90;99.90;;;;;;4975795;28;20565;-65
2022/09/24 16:17:33;;;;;;;3.80;3.50;;;16.90;99.90;;;;;;4975844;28;20414;-65
2022/09/24 16:19:58;;;;;;;6.60;3.83;;;16.90;99.90;;;;;;4976610;28;20501;-64
2022/09/24 16:22:24;;;;;;;4.93;4.53;;;16.90;99.90;;;;;;4975658;28;20263;-66
2022/09/24 16:24:50;;;;;;;4.77;4.30;;;16.90;99.90;;;;;;4975756;28;20513;-65
2022/09/24 16:27:15;;;;;;;3.93;3.63;;;16.80;99.90;;;;;;4975775;28;20643;-66
2022/09/24 16:29:41;;;;;;;4.30;3.90;;;16.80;99.90;;;;;;4975735;28;20204;-65
2022/09/24 16:32:06;;;;;;;5.10;4.60;;;16.80;99.90;;;;;;4958522;28;20173;-65
2022/09/24 16:34:33;;;;;;;5.00;3.67;;;16.70;99.90;;;;;;4975261;28;20268;-64
2022/09/24 16:36:58;;;;;;;5.97;4.00;;;16.60;99.90;;;;;;4975850;28;20186;-64
2022/09/24 16:39:24;;;;;;;4.50;4.10;;;16.50;99.90;;;;;;4975517;28;20451;-65
2022/09/24 16:41:50;;;;;;;4.30;3.93;;;16.50;99.90;;;;;;4975919;28;20298;-65
2022/09/24 16:44:16;;;;;;;4.07;3.77;;;16.40;99.90;;;;;;4957594;28;20606;-64
2022/09/24 16:46:43;;;;;;;6.37;4.97;;;16.30;99.90;;;;;;4975464;28;20514;-65
2022/09/24 16:49:09;;;;;;;4.70;4.30;;;16.20;99.90;;;;;;4975411;28;20452;-64
2022/09/24 16:51:34;;;;;;;4.33;3.93;;;16.10;99.90;;;;;;4975442;28;20996;-64
2022/09/24 16:54:01;;;;;;;5.00;4.03;;;16.10;99.90;;;;;;4974868;28;20503;-64
2022/09/24 16:56:27;;;;;;;5.00;4.50;;;16.00;99.90;;;;;;4974939;28;20639;-66
2022/09/24 16:58:53;;;;;;;6.63;4.60;;;15.90;99.90;;;;;;4975594;28;20423;-64
2022/09/24 17:01:20;;;;;;;6.67;5.00;;;15.80;99.90;;;;;;4975416;28;20176;-65
2022/09/24 17:03:57;;;;;;;5.53;4.47;;;15.80;99.90;;;;;;4974948;28;20431;-66
2022/09/24 17:06:29;;;;;;;4.77;4.37;;;15.70;99.90;;;;;;4968346;28;20445;-65
2022/09/24 17:11:40;;;;;;;5.03;4.53;;;15.60;99.90;;;;;;4975763;28;20798;-65
2022/09/24 17:14:07;;;;;;;5.70;5.17;;;15.50;99.90;;;;;;4974047;28;20842;-65
2022/09/24 17:16:33;;;;;;;4.57;4.03;;;15.40;99.90;;;;;;4974593;28;20427;-66
2022/09/24 17:18:59;;;;;;;5.63;4.87;;;15.40;99.90;;;;;;4975274;28;20415;-65
2022/09/24 17:21:25;;;;;;;5.50;5.10;;;15.30;99.90;;;;;;4974737;28;20785;-65
2022/09/24 17:23:51;;;;;;;6.57;5.70;;;15.20;99.90;;;;;;4973863;28;20249;-65